Strona główna
METAR-TAF:

METAR-TAF

Lotnisko :

Port lotniczy Upington

Upington, Południowa Afryka

Szerokość geograficzna: 28-24S, Długość geograficzna: 021-16E, wysokość: 839 m

Aktualna obserwacja pogody

Raport powstał 57 minut temu, godzina 17:00 UTC
Wiatr 1 kt od południe
Temperatura 24°C
Wilgotność 10%
Ciśnienie 1026 hPa
Widzialność 10 km lub więcej
Brak chmur poniżej 1500 m i brak chmur cumulonimbus

METAR: FAUP 211700Z 17001KT CAVOK 24/M09 Q1026 NOSIG

czas: 19:57 (17:57 UTC)

Prognoza

Raport powstał 1 godzina i 57 minut temu, godzina 16:00 UTC
Prognoza ważna od 21 godzina 18 UTC do 22 godzina 18 UTC
Wiatr 10 kt od północ
Widzialność 10 km lub więcej
Brak chmur poniżej 1500 m i brak chmur cumulonimbus

TAF: FAUP 211600Z 2118/2218 35010KT CAVOK TX29/2212Z TN10/2205Z

Obserwacja i prognoza pogody dla ponad 4000 lotnisk (raport METAR i TAF).

Dostępne stacje oznaczono żółtymi i czerwonymi punktami na mapie.

Najedź kursorem aby zobaczyć nazwę stacji.

Kliknij aby zobaczyć obserwacje i prognozy pogody.

Aby zmienić mapę: kliknij na zielony przycisk z czarnym krzyżykiem, aby powiększyć; na zielony przycisk z myślnikiem, aby pomniejszyć; na zielone strzałki, aby przejść do map sąsiednich.


METAR-TAF: